createdAt,value
2018-02-08T00:00:29.180Z,0.02
2018-02-08T00:01:35.084Z,0.01
2018-02-08T00:02:41.559Z,0.02
2018-02-08T00:03:47.276Z,0.02
2018-02-08T00:04:53.759Z,0.00
2018-02-08T00:05:59.499Z,0.00
2018-02-08T00:07:05.220Z,-0.02
2018-02-08T00:08:11.711Z,-0.03
2018-02-08T00:09:17.413Z,-0.04
2018-02-08T00:10:23.905Z,-0.05
2018-02-08T00:11:29.863Z,-0.05
2018-02-08T00:12:35.588Z,-0.04
2018-02-08T00:13:41.312Z,-0.03
2018-02-08T00:14:47.851Z,-0.04
2018-02-08T00:15:53.740Z,-0.05
2018-02-08T00:16:59.468Z,-0.06
2018-02-08T00:18:05.186Z,-0.06
2018-02-08T00:19:11.687Z,-0.07
2018-02-08T00:20:17.393Z,-0.06
2018-02-08T00:21:23.872Z,-0.07
2018-02-08T00:22:45.249Z,-0.07
2018-02-08T00:23:51.753Z,-0.09
2018-02-08T00:24:57.473Z,-0.10
2018-02-08T00:26:03.191Z,-0.11
2018-02-08T00:27:09.693Z,-0.10
2018-02-08T00:28:15.432Z,-0.11
2018-02-08T00:29:21.160Z,-0.11
2018-02-08T00:30:26.875Z,-0.12
2018-02-08T00:31:33.387Z,-0.12
2018-02-08T00:32:39.932Z,-0.12
2018-02-08T00:33:45.679Z,-0.14
2018-02-08T00:34:51.399Z,-0.15
2018-02-08T00:35:57.122Z,-0.15
2018-02-08T00:37:04.011Z,-0.16
2018-02-08T00:38:09.726Z,-0.17
2018-02-08T00:39:16.246Z,-0.17
2018-02-08T00:40:21.963Z,-0.18
2018-02-08T00:41:27.688Z,-0.18
2018-02-08T00:42:33.417Z,-0.18
2018-02-08T00:43:39.152Z,-0.18
2018-02-08T00:44:45.672Z,-0.18
2018-02-08T00:45:51.387Z,-0.20
2018-02-08T00:46:57.106Z,-0.20
2018-02-08T00:48:03.584Z,-0.21
2018-02-08T00:49:09.317Z,-0.22
2018-02-08T00:50:15.041Z,-0.24
2018-02-08T00:51:20.768Z,-0.25
2018-02-08T00:52:27.264Z,-0.25
2018-02-08T00:53:32.998Z,-0.27
2018-02-08T00:54:38.711Z,-0.28
2018-02-08T00:55:45.224Z,-0.29
2018-02-08T00:56:50.946Z,-0.30
2018-02-08T00:57:56.672Z,-0.30
2018-02-08T00:59:03.152Z,-0.32
2018-02-08T01:00:08.873Z,-0.33
2018-02-08T01:01:14.627Z,-0.34
2018-02-08T01:02:20.336Z,-0.36
2018-02-08T01:03:26.825Z,-0.36
2018-02-08T01:04:32.550Z,-0.38
2018-02-08T01:05:38.267Z,-0.38
2018-02-08T01:06:44.780Z,-0.40
2018-02-08T01:07:50.509Z,-0.41
2018-02-08T01:08:56.243Z,-0.42
2018-02-08T01:10:01.960Z,-0.43
2018-02-08T01:11:07.696Z,-0.43
2018-02-08T01:12:14.208Z,-0.44
2018-02-08T01:13:19.932Z,-0.44
2018-02-08T01:14:25.651Z,-0.45
2018-02-08T01:15:31.369Z,-0.46
2018-02-08T01:16:37.856Z,-0.45
2018-02-08T01:17:43.599Z,-0.46
2018-02-08T01:18:49.320Z,-0.46
2018-02-08T01:19:55.049Z,-0.46
2018-02-08T01:21:01.540Z,-0.47
2018-02-08T01:22:07.264Z,-0.47
2018-02-08T01:23:13.022Z,-0.48
2018-02-08T01:24:18.753Z,-0.47
2018-02-08T01:25:24.476Z,-0.48
2018-02-08T01:26:30.964Z,-0.50
2018-02-08T01:27:36.689Z,-0.51
2018-02-08T01:28:42.450Z,-0.52
2018-02-08T01:29:48.177Z,-0.54
2018-02-08T01:30:53.883Z,-0.55
2018-02-08T01:31:59.608Z,-0.56
2018-02-08T01:33:05.317Z,-0.58
2018-02-08T01:34:11.061Z,-0.58
2018-02-08T01:35:16.787Z,-0.61
2018-02-08T01:36:22.503Z,-0.62
2018-02-08T01:37:28.996Z,-0.63
2018-02-08T01:38:34.723Z,-0.63
2018-02-08T01:39:40.508Z,-0.64
2018-02-08T01:40:46.231Z,-0.64
2018-02-08T01:41:51.950Z,-0.65
2018-02-08T01:42:57.672Z,-0.65
2018-02-08T01:44:04.181Z,-0.65
2018-02-08T01:45:09.916Z,-0.66
2018-02-08T01:46:15.640Z,-0.66
2018-02-08T01:47:21.369Z,-0.67
2018-02-08T01:48:27.102Z,-0.68
2018-02-08T01:49:46.857Z,-0.68
2018-02-08T01:50:53.360Z,-0.71
2018-02-08T01:51:59.139Z,-0.70
2018-02-08T01:53:04.863Z,-0.72
2018-02-08T01:54:10.592Z,-0.73
2018-02-08T01:55:16.309Z,-0.74
2018-02-08T01:56:22.059Z,-0.75
2018-02-08T01:57:27.787Z,-0.76
2018-02-08T01:58:33.508Z,-0.78
2018-02-08T01:59:40.288Z,-0.78
2018-02-08T02:00:46.448Z,-0.79
2018-02-08T02:01:52.199Z,-0.80
2018-02-08T02:02:57.945Z,-0.81
2018-02-08T02:04:03.419Z,-0.83
2018-02-08T02:05:09.141Z,-0.83
2018-02-08T02:06:14.868Z,-0.83
2018-02-08T02:07:20.616Z,-0.84
2018-02-08T02:08:26.347Z,-0.87
2018-02-08T02:09:32.068Z,-0.89
2018-02-08T02:10:37.775Z,-0.92
2018-02-08T02:11:44.281Z,-0.92
2018-02-08T02:12:50.095Z,-0.95
2018-02-08T02:13:56.575Z,-0.96
2018-02-08T02:15:02.296Z,-0.98
2018-02-08T02:16:08.019Z,-0.98
2018-02-08T02:17:14.512Z,-0.98
2018-02-08T02:18:20.304Z,-0.99
2018-02-08T02:19:25.523Z,-0.99
2018-02-08T02:20:31.259Z,-1.00
2018-02-08T02:21:36.972Z,-1.01
2018-02-08T02:22:42.709Z,-1.02
2018-02-08T02:23:48.453Z,-1.04
2018-02-08T02:24:54.179Z,-1.06
2018-02-08T02:25:59.912Z,-1.07
2018-02-08T02:27:05.637Z,-1.08
2018-02-08T02:28:12.117Z,-1.08
2018-02-08T02:29:17.862Z,-1.09
2018-02-08T02:30:23.585Z,-1.10
2018-02-08T02:31:29.309Z,-1.10
2018-02-08T02:32:35.809Z,-1.09
2018-02-08T02:33:41.528Z,-1.11
2018-02-08T02:34:48.035Z,-1.11
2018-02-08T02:35:53.559Z,-1.11
2018-02-08T02:36:59.265Z,-1.13
2018-02-08T02:38:04.660Z,-1.12
2018-02-08T02:39:10.393Z,-1.13
2018-02-08T02:40:16.139Z,-1.12
2018-02-08T02:41:21.875Z,-1.12
2018-02-08T02:42:27.587Z,-1.11
2018-02-08T02:43:33.369Z,-1.13
2018-02-08T02:44:39.851Z,-1.15
2018-02-08T02:45:46.380Z,-1.17
2018-02-08T02:46:52.125Z,-1.18
2018-02-08T02:47:59.344Z,-1.21
2018-02-08T02:49:05.078Z,-1.21
2018-02-08T02:50:11.569Z,-1.22
2018-02-08T02:51:17.312Z,-1.23
2018-02-08T02:52:23.039Z,-1.25
2018-02-08T02:53:28.765Z,-1.28
2018-02-08T02:54:34.298Z,-1.27
2018-02-08T02:55:40.028Z,-1.28
2018-02-08T02:56:46.541Z,-1.26
2018-02-08T02:57:52.260Z,-1.26
2018-02-08T02:58:57.985Z,-1.26
2018-02-08T03:00:03.281Z,-1.27
2018-02-08T03:01:09.031Z,-1.27
2018-02-08T03:02:14.768Z,-1.26
2018-02-08T03:03:21.256Z,-1.29
2018-02-08T03:04:26.983Z,-1.30
2018-02-08T03:05:33.481Z,-1.30
2018-02-08T03:06:39.180Z,-1.31
2018-02-08T03:07:45.691Z,-1.32
2018-02-08T03:08:51.433Z,-1.32
2018-02-08T03:09:57.147Z,-1.33
2018-02-08T03:11:02.879Z,-1.34
2018-02-08T03:12:08.597Z,-1.35
2018-02-08T03:13:15.118Z,-1.36
2018-02-08T03:14:20.827Z,-1.38
2018-02-08T03:15:26.553Z,-1.39
2018-02-08T03:16:33.052Z,-1.40
2018-02-08T03:17:38.776Z,-1.40
2018-02-08T03:18:44.522Z,-1.41
2018-02-08T03:19:50.252Z,-1.41
2018-02-08T03:20:55.987Z,-1.41
2018-02-08T03:22:01.688Z,-1.42
2018-02-08T03:23:07.076Z,-1.42
2018-02-08T03:24:13.587Z,-1.43
2018-02-08T03:25:20.085Z,-1.43
2018-02-08T03:26:25.812Z,-1.45
2018-02-08T03:27:31.534Z,-1.46
2018-02-08T03:28:38.043Z,-1.46
2018-02-08T03:29:43.617Z,-1.47
2018-02-08T03:30:54.613Z,-1.47
2018-02-08T03:32:00.460Z,-1.49
2018-02-08T03:33:06.179Z,-1.49
2018-02-08T03:34:12.671Z,-1.50
2018-02-08T03:35:18.428Z,-1.50
2018-02-08T03:36:24.151Z,-1.50
2018-02-08T03:37:29.880Z,-1.51
2018-02-08T03:38:35.625Z,-1.53
2018-02-08T03:39:41.335Z,-1.54
2018-02-08T03:40:47.075Z,-1.53
2018-02-08T03:41:53.566Z,-1.54
2018-02-08T03:43:00.058Z,-1.55
2018-02-08T03:44:05.767Z,-1.55
2018-02-08T03:45:11.495Z,-1.58
2018-02-08T03:46:18.008Z,-1.60
2018-02-08T03:47:23.728Z,-1.61
2018-02-08T03:48:29.443Z,-1.63
2018-02-08T03:49:35.165Z,-1.65
2018-02-08T03:50:41.651Z,-1.68
2018-02-08T03:51:47.391Z,-1.66
2018-02-08T03:52:53.112Z,-1.65
2018-02-08T03:53:58.835Z,-1.63
2018-02-08T03:55:05.003Z,-1.63
2018-02-08T03:56:11.527Z,-1.57
2018-02-08T03:57:17.445Z,-1.54
2018-02-08T03:58:22.836Z,-1.47
2018-02-08T03:59:29.328Z,-1.42
2018-02-08T04:00:35.055Z,-1.37
2018-02-08T04:01:40.772Z,-1.30
2018-02-08T04:02:47.279Z,-1.26
2018-02-08T04:03:53.017Z,-1.23
2018-02-08T04:04:58.788Z,-1.18
2018-02-08T04:06:04.517Z,-1.11
2018-02-08T04:07:10.236Z,-1.11
2018-02-08T04:08:15.983Z,-1.07
2018-02-08T04:09:21.716Z,-1.02
2018-02-08T04:10:27.436Z,-0.99
2018-02-08T04:11:33.160Z,-0.96
2018-02-08T04:12:39.645Z,-0.93
2018-02-08T04:13:45.448Z,-0.90
2018-02-08T04:14:51.954Z,-0.84
2018-02-08T04:15:57.830Z,-0.81
2018-02-08T04:17:03.555Z,-0.77
2018-02-08T04:18:09.311Z,-0.71
2018-02-08T04:19:15.060Z,-0.65
2018-02-08T04:20:20.793Z,-0.58
2018-02-08T04:21:26.514Z,-0.54
2018-02-08T04:22:32.242Z,-0.53
2018-02-08T04:23:37.978Z,-0.49
2018-02-08T04:24:43.715Z,-0.46
2018-02-08T04:25:49.460Z,-0.41
2018-02-08T04:26:55.179Z,-0.41
2018-02-08T04:28:01.670Z,-0.38
2018-02-08T04:29:07.389Z,-0.35
2018-02-08T04:30:13.142Z,-0.30
2018-02-08T04:31:18.864Z,-0.26
2018-02-08T04:32:25.339Z,-0.21
2018-02-08T04:33:31.088Z,-0.15
2018-02-08T04:34:36.797Z,-0.12
2018-02-08T04:35:43.311Z,-0.09
2018-02-08T04:36:49.040Z,-0.08
2018-02-08T04:37:54.782Z,-0.05
2018-02-08T04:39:17.430Z,-0.05
2018-02-08T04:40:39.975Z,-0.05
2018-02-08T04:42:03.397Z,-0.04
2018-02-08T04:43:26.083Z,-0.06
2018-02-08T04:44:48.452Z,-0.07
2018-02-08T04:46:10.896Z,-0.09
2018-02-08T04:47:28.456Z,-0.09
2018-02-08T04:48:34.192Z,-0.11
2018-02-08T04:49:39.900Z,-0.09
2018-02-08T04:50:45.633Z,-0.08
2018-02-08T04:51:51.364Z,-0.06
2018-02-08T04:52:57.104Z,-0.04
2018-02-08T04:54:02.857Z,-0.02
2018-02-08T04:55:08.780Z,0.00
2018-02-08T04:56:15.272Z,0.02
2018-02-08T04:57:20.987Z,0.03
2018-02-08T04:58:27.493Z,0.05
2018-02-08T04:59:33.208Z,0.05
2018-02-08T05:00:38.936Z,0.08
2018-02-08T05:01:44.459Z,0.09
2018-02-08T05:02:51.468Z,0.10
2018-02-08T05:03:57.206Z,0.12
2018-02-08T05:05:02.923Z,0.12
2018-02-08T05:06:08.637Z,0.11
2018-02-08T05:07:14.351Z,0.13
2018-02-08T05:08:20.064Z,0.15
2018-02-08T05:09:25.821Z,0.14
2018-02-08T05:10:31.543Z,0.16
2018-02-08T05:11:37.267Z,0.17
2018-02-08T05:12:42.979Z,0.17
2018-02-08T05:13:48.760Z,0.16
2018-02-08T05:14:54.656Z,0.15
2018-02-08T05:16:01.142Z,0.13
2018-02-08T05:17:07.622Z,0.13
2018-02-08T05:18:13.337Z,0.13
2018-02-08T05:19:19.827Z,0.13
2018-02-08T05:20:25.571Z,0.13
2018-02-08T05:21:31.287Z,0.11
2018-02-08T05:22:37.018Z,0.12
2018-02-08T05:23:43.503Z,0.13
2018-02-08T05:24:49.204Z,0.12
2018-02-08T05:25:54.946Z,0.11
2018-02-08T05:27:00.666Z,0.11
2018-02-08T05:28:06.384Z,0.12
2018-02-08T05:29:12.107Z,0.14
2018-02-08T05:30:17.825Z,0.13
2018-02-08T05:31:24.147Z,0.13
2018-02-08T05:32:29.877Z,0.13
2018-02-08T05:33:35.606Z,0.14
2018-02-08T05:34:41.333Z,0.15
2018-02-08T05:35:47.045Z,0.16
2018-02-08T05:36:52.795Z,0.15
2018-02-08T05:37:58.523Z,0.14
2018-02-08T05:39:03.924Z,0.13
2018-02-08T05:40:09.637Z,0.10
2018-02-08T05:41:15.350Z,0.11
2018-02-08T05:42:21.087Z,0.10
2018-02-08T05:43:26.813Z,0.08
2018-02-08T05:44:32.521Z,0.08
2018-02-08T05:45:39.004Z,0.04
2018-02-08T05:46:45.246Z,0.03
2018-02-08T05:47:50.983Z,0.00
2018-02-08T05:48:56.699Z,-0.02
2018-02-08T05:50:02.412Z,-0.06
2018-02-08T05:51:08.147Z,-0.08
2018-02-08T05:52:13.877Z,-0.09
2018-02-08T05:53:20.371Z,-0.11
2018-02-08T05:54:25.902Z,-0.11
2018-02-08T05:55:31.616Z,-0.12
2018-02-08T05:56:37.343Z,-0.12
2018-02-08T05:57:43.831Z,-0.12
2018-02-08T05:58:49.592Z,-0.13
2018-02-08T05:59:55.308Z,-0.12
2018-02-08T06:01:01.016Z,-0.13
2018-02-08T06:02:10.435Z,-0.16
2018-02-08T06:03:16.907Z,-0.17
2018-02-08T06:04:23.424Z,-0.19
2018-02-08T06:05:29.152Z,-0.19
2018-02-08T06:06:34.595Z,-0.20
2018-02-08T06:07:40.320Z,-0.22
2018-02-08T06:08:46.809Z,-0.21
2018-02-08T06:09:52.557Z,-0.22
2018-02-08T06:10:59.048Z,-0.24
2018-02-08T06:12:04.827Z,-0.26
2018-02-08T06:13:10.551Z,-0.27
2018-02-08T06:14:16.272Z,-0.28
2018-02-08T06:15:22.039Z,-0.29
2018-02-08T06:16:27.756Z,-0.30
2018-02-08T06:17:34.231Z,-0.31
2018-02-08T06:18:39.959Z,-0.32
2018-02-08T06:19:45.691Z,-0.34
2018-02-08T06:20:52.225Z,-0.34
2018-02-08T06:21:57.935Z,-0.34
2018-02-08T06:23:03.676Z,-0.35
2018-02-08T06:24:09.411Z,-0.35
2018-02-08T06:25:15.129Z,-0.36
2018-02-08T06:26:20.899Z,-0.38
2018-02-08T06:27:26.603Z,-0.39
2018-02-08T06:28:33.135Z,-0.40
2018-02-08T06:29:39.036Z,-0.41
2018-02-08T06:30:44.776Z,-0.43
2018-02-08T06:31:50.523Z,-0.43
2018-02-08T06:32:56.242Z,-0.45
2018-02-08T06:34:01.960Z,-0.46
2018-02-08T06:35:08.453Z,-0.48
2018-02-08T06:36:14.169Z,-0.50
2018-02-08T06:37:19.913Z,-0.51
2018-02-08T06:38:25.875Z,-0.53
2018-02-08T06:39:31.600Z,-0.55
2018-02-08T06:40:37.331Z,-0.57
2018-02-08T06:41:43.828Z,-0.60
2018-02-08T06:42:49.984Z,-0.62
2018-02-08T06:43:55.703Z,-0.65
2018-02-08T06:45:01.430Z,-0.66
2018-02-08T06:46:07.915Z,-0.68
2018-02-08T06:47:14.152Z,-0.69
2018-02-08T06:48:20.649Z,-0.71
2018-02-08T06:49:26.359Z,-0.74
2018-02-08T06:50:32.087Z,-0.76
2018-02-08T06:51:37.791Z,-0.77
2018-02-08T06:52:43.538Z,-0.79
2018-02-08T06:53:49.280Z,-0.81
2018-02-08T06:54:55.782Z,-0.85
2018-02-08T06:56:01.560Z,-0.87
2018-02-08T06:57:07.273Z,-0.87
2018-02-08T06:58:13.020Z,-0.86
2018-02-08T06:59:18.955Z,-0.86
2018-02-08T07:00:24.688Z,-0.86
2018-02-08T07:01:30.419Z,-0.87
2018-02-08T07:02:36.147Z,-0.89
2018-02-08T07:03:42.623Z,-0.89
2018-02-08T07:04:48.366Z,-0.89
2018-02-08T07:05:54.079Z,-0.88
2018-02-08T07:07:00.572Z,-0.85
2018-02-08T07:08:06.301Z,-0.82
2018-02-08T07:09:12.025Z,-0.78
2018-02-08T07:10:18.350Z,-0.75
2018-02-08T07:11:24.071Z,-0.73
2018-02-08T07:12:29.803Z,-0.70
2018-02-08T07:13:35.522Z,-0.67
2018-02-08T07:14:41.265Z,-0.69
2018-02-08T07:15:47.014Z,-0.65
2018-02-08T07:16:52.501Z,-0.61
2018-02-08T07:17:58.265Z,-0.53
2018-02-08T07:19:04.136Z,-0.48
2018-02-08T07:20:12.930Z,-0.43
2018-02-08T07:21:19.435Z,-0.39
2018-02-08T07:22:25.143Z,-0.36
2018-02-08T07:23:30.876Z,-0.33
2018-02-08T07:24:36.607Z,-0.29
2018-02-08T07:25:42.348Z,-0.26
2018-02-08T07:26:48.096Z,-0.24
2018-02-08T07:27:53.825Z,-0.19
2018-02-08T07:29:00.309Z,-0.17
2018-02-08T07:30:05.378Z,-0.12
2018-02-08T07:31:11.104Z,-0.08
2018-02-08T07:32:16.835Z,-0.05
2018-02-08T07:33:22.556Z,-0.03
2018-02-08T07:34:28.462Z,0.02
2018-02-08T07:35:34.952Z,0.05
2018-02-08T07:36:40.672Z,0.08
2018-02-08T07:37:47.192Z,0.12
2018-02-08T07:38:52.907Z,0.17
2018-02-08T07:39:58.419Z,0.21
2018-02-08T07:41:04.177Z,0.25
2018-02-08T07:42:09.896Z,0.29
2018-02-08T07:43:15.647Z,0.32
2018-02-08T07:44:22.127Z,0.34
2018-02-08T07:45:27.861Z,0.37
2018-02-08T07:46:33.623Z,0.39
2018-02-08T07:47:39.455Z,0.41
2018-02-08T07:48:45.196Z,0.41
2018-02-08T07:49:50.916Z,0.40
2018-02-08T07:50:56.632Z,0.40
2018-02-08T07:52:03.447Z,0.41
2018-02-08T07:53:09.204Z,0.43
2018-02-08T07:54:14.987Z,0.44
2018-02-08T07:55:21.689Z,0.46
2018-02-08T07:56:27.594Z,0.48
2018-02-08T07:57:34.318Z,0.52
2018-02-08T07:58:40.234Z,0.54
2018-02-08T07:59:46.135Z,0.56
2018-02-08T08:00:52.666Z,0.57
2018-02-08T08:01:58.783Z,0.57
2018-02-08T08:03:04.738Z,0.60
2018-02-08T08:04:10.709Z,0.62
2018-02-08T08:05:17.251Z,0.64
2018-02-08T08:06:23.082Z,0.66
2018-02-08T08:07:28.976Z,0.69
2018-02-08T08:08:35.783Z,0.71
2018-02-08T08:09:41.542Z,0.73
2018-02-08T08:10:47.561Z,0.74
2018-02-08T08:11:53.828Z,0.74
2018-02-08T08:12:59.773Z,0.77
2018-02-08T08:14:05.665Z,0.79
2018-02-08T08:15:12.706Z,0.79
2018-02-08T08:16:18.993Z,0.74
2018-02-08T08:17:25.804Z,0.82
2018-02-08T08:18:31.871Z,0.87
2018-02-08T08:19:37.756Z,0.94
2018-02-08T08:20:46.725Z,0.98
2018-02-08T08:21:52.704Z,1.02
2018-02-08T08:22:58.952Z,1.06
2018-02-08T08:24:04.891Z,1.10
2018-02-08T08:25:10.890Z,1.12
2018-02-08T08:26:17.588Z,1.16
2018-02-08T08:27:23.555Z,1.21
2018-02-08T08:28:30.347Z,1.24
2018-02-08T08:29:37.183Z,1.21
2018-02-08T08:30:43.820Z,1.17
2018-02-08T08:31:49.534Z,1.16
2018-02-08T08:32:55.284Z,1.18
2018-02-08T08:34:01.264Z,1.19
2018-02-08T08:35:07.156Z,1.18
2018-02-08T08:36:14.019Z,1.22
2018-02-08T08:37:21.256Z,1.25
2018-02-08T08:38:26.927Z,1.31
2018-02-08T08:39:33.709Z,1.38
2018-02-08T08:40:40.504Z,1.42
2018-02-08T08:41:46.358Z,1.47
2018-02-08T08:42:53.420Z,1.46
2018-02-08T08:43:59.471Z,1.45
2018-02-08T08:45:05.239Z,1.39
2018-02-08T08:46:10.839Z,1.39
2018-02-08T08:47:16.741Z,1.43
2018-02-08T08:48:22.726Z,1.54
2018-02-08T08:49:28.788Z,1.60
2018-02-08T08:50:34.845Z,1.62
2018-02-08T08:51:41.705Z,1.65
2018-02-08T08:52:47.439Z,1.68
2018-02-08T08:53:53.395Z,1.70
2018-02-08T08:54:59.268Z,1.72
2018-02-08T08:56:04.937Z,1.74
2018-02-08T08:57:11.539Z,1.76
2018-02-08T08:58:17.353Z,1.75
2018-02-08T08:59:23.939Z,1.74
2018-02-08T09:00:30.081Z,1.70
2018-02-08T09:01:35.977Z,1.73
2018-02-08T09:02:42.300Z,1.78
2018-02-08T09:03:47.746Z,1.81
2018-02-08T09:04:53.772Z,1.86
2018-02-08T09:05:59.684Z,1.92
2018-02-08T09:07:06.380Z,1.93
2018-02-08T09:08:12.541Z,1.95
2018-02-08T09:09:18.399Z,1.97
2018-02-08T09:10:24.530Z,1.95
2018-02-08T09:11:30.538Z,2.02
2018-02-08T09:12:37.347Z,2.03
2018-02-08T09:13:43.253Z,2.06
2018-02-08T09:14:49.557Z,2.12
2018-02-08T09:15:55.577Z,2.17
2018-02-08T09:17:01.361Z,2.20
2018-02-08T09:18:07.086Z,2.19
2018-02-08T09:19:12.816Z,2.18
2018-02-08T09:20:18.524Z,2.15
2018-02-08T09:21:25.006Z,2.17
2018-02-08T09:22:30.738Z,2.20
2018-02-08T09:23:37.224Z,2.19
2018-02-08T09:24:42.929Z,2.18
2018-02-08T09:25:49.194Z,2.16
2018-02-08T09:26:55.660Z,2.12
2018-02-08T09:28:01.392Z,2.12
2018-02-08T09:29:07.270Z,2.10
2018-02-08T09:30:13.294Z,2.14
2018-02-08T09:31:19.321Z,2.18
2018-02-08T09:32:25.285Z,2.20
2018-02-08T09:33:31.411Z,2.20
2018-02-08T09:34:38.122Z,2.20
2018-02-08T09:35:44.115Z,2.19
2018-02-08T09:36:50.271Z,2.20
2018-02-08T09:37:57.423Z,2.20
2018-02-08T09:39:03.548Z,2.22
2018-02-08T09:40:08.936Z,2.23
2018-02-08T09:41:15.420Z,2.22
2018-02-08T09:42:21.222Z,2.23
2018-02-08T09:43:26.943Z,2.23
2018-02-08T09:44:32.817Z,2.22
2018-02-08T09:45:39.296Z,2.21
2018-02-08T09:46:45.124Z,2.21
2018-02-08T09:47:52.336Z,2.23
2018-02-08T09:48:58.243Z,2.27
2018-02-08T09:50:04.762Z,2.29
2018-02-08T09:51:10.970Z,2.28
2018-02-08T09:52:16.686Z,2.28
2018-02-08T09:53:22.388Z,2.30
2018-02-08T09:54:28.128Z,2.31
2018-02-08T09:55:33.872Z,2.32
2018-02-08T09:56:39.578Z,2.32
2018-02-08T09:57:45.300Z,2.32
2018-02-08T09:58:51.786Z,2.29
2018-02-08T09:59:57.488Z,2.33
2018-02-08T10:01:04.076Z,2.39
2018-02-08T10:02:09.781Z,2.40
2018-02-08T10:03:15.508Z,2.40
2018-02-08T10:04:21.226Z,2.43
2018-02-08T10:05:26.941Z,2.45
2018-02-08T10:06:32.679Z,2.48
2018-02-08T10:07:38.524Z,2.48
2018-02-08T10:08:44.225Z,2.49
2018-02-08T10:09:49.937Z,2.49
2018-02-08T10:10:55.459Z,2.50
2018-02-08T10:12:01.197Z,2.51
2018-02-08T10:13:06.788Z,2.49
2018-02-08T10:14:12.492Z,2.48
2018-02-08T10:15:18.018Z,2.48
2018-02-08T10:16:23.772Z,2.50
2018-02-08T10:17:29.521Z,2.53
2018-02-08T10:18:35.291Z,2.55
2018-02-08T10:19:41.784Z,2.58
2018-02-08T10:20:47.488Z,2.60
2018-02-08T10:21:53.959Z,2.63
2018-02-08T10:22:59.691Z,2.66
2018-02-08T10:24:06.171Z,2.70
2018-02-08T10:25:12.120Z,2.72
2018-02-08T10:26:17.852Z,2.76
2018-02-08T10:27:23.560Z,2.80
2018-02-08T10:28:29.296Z,2.84
2018-02-08T10:29:35.004Z,2.89
2018-02-08T10:30:40.703Z,2.93
2018-02-08T10:31:47.183Z,2.96
2018-02-08T10:32:52.906Z,3.03
2018-02-08T10:33:59.434Z,3.10
2018-02-08T10:35:05.367Z,3.15
2018-02-08T10:36:11.547Z,3.21
2018-02-08T10:37:18.147Z,3.28
2018-02-08T10:38:24.878Z,3.33
2018-02-08T10:39:30.854Z,3.36
2018-02-08T10:40:36.909Z,3.36
2018-02-08T10:41:42.894Z,3.39
2018-02-08T10:42:49.827Z,3.42
2018-02-08T10:43:55.784Z,3.51
2018-02-08T10:45:01.712Z,3.59
2018-02-08T10:46:07.654Z,3.66
2018-02-08T10:47:13.599Z,3.70
2018-02-08T10:48:19.540Z,3.74
2018-02-08T10:49:25.492Z,3.79
2018-02-08T10:50:31.625Z,3.84
2018-02-08T10:51:37.688Z,3.89
2018-02-08T10:52:43.721Z,3.92
2018-02-08T10:53:49.699Z,3.94
2018-02-08T10:54:55.610Z,3.97
2018-02-08T10:56:03.409Z,4.00
2018-02-08T10:57:09.570Z,4.00
2018-02-08T10:58:15.304Z,4.03
2018-02-08T10:59:21.677Z,4.04
2018-02-08T11:00:27.633Z,4.03
2018-02-08T11:01:33.766Z,4.09
2018-02-08T11:02:39.787Z,4.16
2018-02-08T11:03:46.245Z,4.21
2018-02-08T11:04:52.302Z,4.24
2018-02-08T11:05:58.281Z,4.27
2018-02-08T11:07:04.516Z,4.31
2018-02-08T11:08:10.343Z,4.31
2018-02-08T11:09:17.075Z,4.29
2018-02-08T11:10:25.640Z,4.29
2018-02-08T11:11:31.584Z,4.29
2018-02-08T11:12:37.342Z,4.32
2018-02-08T11:13:44.091Z,4.32
2018-02-08T11:14:50.140Z,4.33
2018-02-08T11:15:56.153Z,4.33
2018-02-08T11:17:02.832Z,4.34
2018-02-08T11:18:09.695Z,4.36
2018-02-08T11:19:15.728Z,4.38
2018-02-08T11:20:22.378Z,4.45
2018-02-08T11:21:28.405Z,4.50
2018-02-08T11:22:34.356Z,4.53
2018-02-08T11:23:40.362Z,4.59
2018-02-08T11:24:46.311Z,4.63
2018-02-08T11:25:52.333Z,4.65
2018-02-08T11:26:58.330Z,4.64
2018-02-08T11:28:04.272Z,4.60
2018-02-08T11:29:10.405Z,4.53
2018-02-08T11:30:16.263Z,4.52
2018-02-08T11:31:22.105Z,4.55
2018-02-08T11:32:28.241Z,4.62
2018-02-08T11:33:34.191Z,4.69
2018-02-08T11:34:40.123Z,4.73
2018-02-08T11:35:46.963Z,4.74
2018-02-08T11:36:53.771Z,4.76
2018-02-08T11:37:59.911Z,4.80
2018-02-08T11:39:05.153Z,4.84
2018-02-08T11:40:11.458Z,4.87
2018-02-08T11:41:17.275Z,4.90
2018-02-08T11:42:23.219Z,4.93
2018-02-08T11:43:29.162Z,4.99
2018-02-08T11:44:35.079Z,5.01
2018-02-08T11:45:41.029Z,5.01
2018-02-08T11:46:46.965Z,5.02
2018-02-08T11:47:52.925Z,5.02
2018-02-08T11:48:58.857Z,5.04
2018-02-08T11:50:04.452Z,5.02
2018-02-08T11:51:11.313Z,5.02
2018-02-08T11:52:17.031Z,4.99
2018-02-08T11:53:22.635Z,4.96
2018-02-08T11:54:30.018Z,4.84
2018-02-08T11:55:36.075Z,4.82
2018-02-08T11:56:42.034Z,4.86
2018-02-08T11:57:47.768Z,4.89
2018-02-08T11:58:53.528Z,4.89
2018-02-08T11:59:59.245Z,4.83
2018-02-08T12:01:04.979Z,4.79
2018-02-08T12:02:10.703Z,4.71
2018-02-08T12:03:17.183Z,4.70
2018-02-08T12:04:22.899Z,4.72
2018-02-08T12:05:29.390Z,4.74
2018-02-08T12:06:35.156Z,4.76
2018-02-08T12:07:40.894Z,4.75
2018-02-08T12:08:46.621Z,4.68
2018-02-08T12:09:52.343Z,4.68
2018-02-08T12:10:58.065Z,4.66
2018-02-08T12:12:04.586Z,4.63
2018-02-08T12:13:10.513Z,4.57
2018-02-08T12:14:16.219Z,4.49
2018-02-08T12:15:23.070Z,4.44
2018-02-08T12:16:29.656Z,4.40
2018-02-08T12:17:36.137Z,4.35
2018-02-08T12:18:41.873Z,4.27
2018-02-08T12:19:47.585Z,4.24
2018-02-08T12:20:54.089Z,4.24
2018-02-08T12:21:59.850Z,4.22
2018-02-08T12:23:05.229Z,4.19
2018-02-08T12:24:11.006Z,4.16
2018-02-08T12:25:16.756Z,4.13
2018-02-08T12:26:22.476Z,4.12
2018-02-08T12:27:28.186Z,4.11
2018-02-08T12:28:34.700Z,4.08
2018-02-08T12:29:40.451Z,4.06
2018-02-08T12:30:46.217Z,4.05
2018-02-08T12:31:52.766Z,4.04
2018-02-08T12:32:58.661Z,3.96
2018-02-08T12:34:04.142Z,3.87
2018-02-08T12:35:09.888Z,3.89
2018-02-08T12:36:16.370Z,3.94
2018-02-08T12:37:22.860Z,3.96
2018-02-08T12:38:28.660Z,3.97
2018-02-08T12:39:35.143Z,3.94
2018-02-08T12:40:40.882Z,3.95
2018-02-08T12:41:46.613Z,4.00
2018-02-08T12:42:53.087Z,4.02
2018-02-08T12:43:58.502Z,4.03
2018-02-08T12:45:04.658Z,3.84
2018-02-08T12:46:11.157Z,3.80
2018-02-08T12:47:16.763Z,3.74
2018-02-08T12:48:22.477Z,3.79
2018-02-08T12:49:28.989Z,3.89
2018-02-08T12:50:34.697Z,3.96
2018-02-08T12:51:40.457Z,3.97
2018-02-08T12:52:46.181Z,3.98
2018-02-08T12:53:51.915Z,3.96
2018-02-08T12:54:58.388Z,4.00
2018-02-08T12:56:04.129Z,4.02
2018-02-08T12:57:09.875Z,4.10
2018-02-08T12:58:15.614Z,4.14
2018-02-08T12:59:21.333Z,4.15
2018-02-08T13:00:27.876Z,4.13
2018-02-08T13:01:33.642Z,4.25
2018-02-08T13:02:40.123Z,4.29
2018-02-08T13:03:45.840Z,4.32
2018-02-08T13:04:52.308Z,4.40
2018-02-08T13:05:58.009Z,4.43
2018-02-08T13:07:03.711Z,4.48
2018-02-08T13:08:09.901Z,4.51
2018-02-08T13:09:17.295Z,4.53
2018-02-08T13:10:23.317Z,4.58
2018-02-08T13:11:29.211Z,4.53
2018-02-08T13:12:34.983Z,4.54
2018-02-08T13:13:40.883Z,4.47
2018-02-08T13:14:47.561Z,4.33
2018-02-08T13:15:54.404Z,4.28
2018-02-08T13:17:00.335Z,4.18
2018-02-08T13:18:06.791Z,4.11
2018-02-08T13:19:13.538Z,4.02
2018-02-08T13:20:20.263Z,4.05
2018-02-08T13:21:26.213Z,4.00
2018-02-08T13:22:32.175Z,4.09
2018-02-08T13:23:38.353Z,4.15
2018-02-08T13:24:44.738Z,4.18
2018-02-08T13:25:51.295Z,4.21
2018-02-08T13:26:57.716Z,4.11
2018-02-08T13:28:03.718Z,4.17
2018-02-08T13:29:09.598Z,4.22
2018-02-08T13:30:15.599Z,4.28
2018-02-08T13:32:58.070Z,4.45
2018-02-08T13:34:04.668Z,4.49
2018-02-08T13:35:11.490Z,4.52
2018-02-08T13:36:17.339Z,4.55
2018-02-08T13:37:23.277Z,4.54
2018-02-08T13:38:29.139Z,4.58
2018-02-08T13:41:14.771Z,4.53
2018-02-08T13:42:20.853Z,4.41
2018-02-08T13:43:26.603Z,4.35
2018-02-08T13:44:32.816Z,4.22
2018-02-08T13:45:39.333Z,4.27
2018-02-08T13:46:47.913Z,4.27
2018-02-08T13:49:29.820Z,4.16
2018-02-08T13:50:41.329Z,4.23
2018-02-08T13:53:36.429Z,4.24
2018-02-08T13:54:44.549Z,4.27
2018-02-08T13:55:55.788Z,4.23
2018-02-08T13:57:07.068Z,4.11
2018-02-08T13:58:18.917Z,4.00
2018-02-08T13:59:30.983Z,3.91
2018-02-08T14:00:40.490Z,3.80
2018-02-08T14:01:52.198Z,3.75
2018-02-08T14:02:57.945Z,3.69
2018-02-08T14:04:03.914Z,3.69
2018-02-08T14:05:09.871Z,3.73
2018-02-08T14:06:16.699Z,3.72
2018-02-08T14:07:22.665Z,3.69
2018-02-08T14:08:28.597Z,3.68
2018-02-08T14:09:35.328Z,3.63
2018-02-08T14:10:42.878Z,3.63
2018-02-08T14:11:50.428Z,3.52
2018-02-08T14:12:56.323Z,3.50
2018-02-08T14:14:02.192Z,3.48
2018-02-08T14:15:08.108Z,3.49
2018-02-08T14:16:14.078Z,3.48
2018-02-08T14:17:19.998Z,3.41
2018-02-08T14:18:26.022Z,3.31
2018-02-08T14:19:31.790Z,3.25
2018-02-08T14:20:38.341Z,3.23
2018-02-08T14:21:44.158Z,3.18
2018-02-08T14:22:49.864Z,3.16
2018-02-08T14:23:55.588Z,3.15
2018-02-08T14:25:01.408Z,3.11
2018-02-08T14:26:08.763Z,3.03
2018-02-08T14:27:14.948Z,2.97
2018-02-08T14:28:22.607Z,2.94
2018-02-08T14:29:28.751Z,2.87
2018-02-08T14:30:35.433Z,2.81
2018-02-08T14:31:42.087Z,2.77
2018-02-08T14:32:48.933Z,2.74
2018-02-08T14:33:54.937Z,2.75
2018-02-08T14:35:00.760Z,2.73